createdAt,value
2023-07-19T00:02:23.112Z,3.83
2023-07-19T00:04:50.884Z,3.13
2023-07-19T00:10:59.134Z,3.40
2023-07-19T00:13:26.983Z,3.27
2023-07-19T00:15:56.181Z,3.67
2023-07-19T00:18:24.193Z,3.80
2023-07-19T00:20:52.259Z,3.43
2023-07-19T00:23:19.991Z,3.80
2023-07-19T00:25:47.720Z,3.93
2023-07-19T00:28:15.423Z,2.90
2023-07-19T00:30:43.615Z,3.50
2023-07-19T00:33:12.627Z,3.90
2023-07-19T00:35:42.756Z,3.43
2023-07-19T00:38:10.436Z,3.70
2023-07-19T00:40:38.111Z,3.80
2023-07-19T00:43:10.231Z,3.83
2023-07-19T00:45:42.446Z,3.70
2023-07-19T00:48:10.196Z,3.53
2023-07-19T00:50:39.578Z,3.10
2023-07-19T00:53:07.489Z,3.47
2023-07-19T00:55:35.357Z,3.57
2023-07-19T00:58:03.118Z,3.13
2023-07-19T01:00:31.810Z,3.60
2023-07-19T01:02:59.944Z,3.60
2023-07-19T01:05:28.079Z,3.67
2023-07-19T01:07:59.685Z,3.70
2023-07-19T01:10:27.800Z,4.00
2023-07-19T01:13:05.704Z,4.03
2023-07-19T01:15:33.439Z,4.03
2023-07-19T01:18:01.228Z,3.43
2023-07-19T01:20:29.534Z,3.13
2023-07-19T01:22:59.387Z,4.50
2023-07-19T01:25:27.550Z,3.60
2023-07-19T01:27:55.310Z,3.73
2023-07-19T01:30:23.004Z,4.10
2023-07-19T01:32:50.948Z,4.53
2023-07-19T01:35:18.926Z,3.20
2023-07-19T01:37:47.732Z,3.80
2023-07-19T01:40:16.808Z,3.77
2023-07-19T01:42:44.559Z,4.10
2023-07-19T01:45:12.415Z,4.17
2023-07-19T01:47:40.293Z,3.93
2023-07-19T01:50:08.612Z,4.20
2023-07-19T01:52:36.363Z,3.43
2023-07-19T01:55:04.337Z,3.53
2023-07-19T01:57:33.410Z,3.67
2023-07-19T02:00:01.267Z,4.57
2023-07-19T02:02:29.186Z,3.93
2023-07-19T02:04:57.332Z,3.47
2023-07-19T02:07:25.168Z,3.17
2023-07-19T02:09:53.014Z,3.40
2023-07-19T02:12:20.715Z,3.90
2023-07-19T02:14:49.846Z,3.83
2023-07-19T02:17:17.579Z,3.67
2023-07-19T02:19:45.352Z,4.63
2023-07-19T02:22:13.344Z,4.33
2023-07-19T02:24:41.071Z,4.30
2023-07-19T02:27:08.813Z,5.10
2023-07-19T02:29:36.565Z,3.80
2023-07-19T02:32:06.319Z,4.90
2023-07-19T02:34:34.048Z,4.10
2023-07-19T02:37:01.769Z,4.73
2023-07-19T02:39:31.197Z,4.00
2023-07-19T02:41:59.042Z,4.03
2023-07-19T02:44:26.749Z,3.37
2023-07-19T02:46:54.491Z,4.20
2023-07-19T02:49:25.051Z,3.37
2023-07-19T02:51:52.738Z,4.43
2023-07-19T02:54:20.543Z,4.27
2023-07-19T02:56:48.305Z,3.40
2023-07-19T02:59:16.034Z,4.90
2023-07-19T03:01:43.872Z,4.53
2023-07-19T03:04:13.802Z,4.47
2023-07-19T03:06:42.839Z,3.80
2023-07-19T03:09:12.151Z,3.83
2023-07-19T03:11:39.915Z,3.63
2023-07-19T03:14:07.641Z,4.67
2023-07-19T03:16:35.368Z,3.77
2023-07-19T03:19:03.395Z,4.40
2023-07-19T03:21:31.090Z,4.70
2023-07-19T03:24:00.130Z,4.37
2023-07-19T03:26:28.045Z,4.33
2023-07-19T03:28:55.766Z,3.70
2023-07-19T03:31:23.866Z,3.73
2023-07-19T03:33:51.928Z,4.20
2023-07-19T03:36:19.863Z,4.20
2023-07-19T03:38:47.619Z,4.30
2023-07-19T03:41:16.747Z,3.60
2023-07-19T03:43:45.018Z,4.00
2023-07-19T03:46:12.861Z,3.53
2023-07-19T03:48:40.828Z,3.90
2023-07-19T03:51:08.618Z,4.60
2023-07-19T03:53:36.782Z,4.07
2023-07-19T03:56:04.568Z,4.50
2023-07-19T03:58:33.911Z,3.80
2023-07-19T04:01:04.223Z,3.37
2023-07-19T04:03:32.234Z,4.03
2023-07-19T04:06:00.210Z,3.90
2023-07-19T04:08:28.517Z,3.77
2023-07-19T04:10:56.227Z,4.03
2023-07-19T04:13:23.915Z,4.13
2023-07-19T04:15:53.249Z,4.10
2023-07-19T04:18:20.909Z,3.83
2023-07-19T04:20:55.912Z,4.30
2023-07-19T04:23:23.632Z,3.50
2023-07-19T04:25:51.940Z,3.70
2023-07-19T04:28:20.915Z,3.60
2023-07-19T04:30:50.434Z,3.57
2023-07-19T04:33:21.605Z,3.70
2023-07-19T04:35:50.603Z,3.97
2023-07-19T04:38:18.404Z,3.77
2023-07-19T04:40:46.136Z,3.47
2023-07-19T04:43:14.249Z,3.60
2023-07-19T04:45:43.183Z,3.90
2023-07-19T04:48:11.262Z,4.00
2023-07-19T04:50:40.417Z,4.03
2023-07-19T04:53:08.356Z,3.83
2023-07-19T04:55:36.028Z,3.80
2023-07-19T04:58:04.273Z,4.07
2023-07-19T05:00:32.067Z,3.70
2023-07-19T05:02:59.804Z,4.13
2023-07-19T05:05:27.899Z,4.00
2023-07-19T05:07:56.963Z,4.17
2023-07-19T05:10:24.668Z,3.60
2023-07-19T05:12:52.411Z,3.90
2023-07-19T05:15:20.436Z,4.13
2023-07-19T05:17:48.302Z,3.40
2023-07-19T05:20:17.248Z,4.20
2023-07-19T05:22:45.272Z,3.70
2023-07-19T05:25:14.734Z,3.00
2023-07-19T05:27:42.504Z,3.20
2023-07-19T05:30:11.249Z,3.27
2023-07-19T05:32:39.348Z,3.50
2023-07-19T05:35:08.542Z,2.97
2023-07-19T05:37:36.592Z,3.90
2023-07-19T05:40:06.034Z,2.97
2023-07-19T05:42:35.336Z,3.47
2023-07-19T05:45:03.326Z,3.10
2023-07-19T05:47:31.437Z,3.50
2023-07-19T05:49:59.338Z,2.47
2023-07-19T05:52:28.646Z,3.70
2023-07-19T05:54:56.511Z,3.30
2023-07-19T05:57:24.764Z,3.57
2023-07-19T05:59:56.505Z,3.17
2023-07-19T06:02:39.224Z,3.60
2023-07-19T06:05:15.874Z,2.97
2023-07-19T06:07:43.841Z,3.90
2023-07-19T06:10:11.895Z,2.87
2023-07-19T06:12:39.642Z,2.53
2023-07-19T06:15:13.001Z,2.40
2023-07-19T06:17:42.759Z,2.20
2023-07-19T06:20:12.631Z,3.03
2023-07-19T06:22:40.531Z,2.23
2023-07-19T06:25:09.047Z,2.50
2023-07-19T06:27:37.010Z,2.60
2023-07-19T06:30:05.411Z,2.07
2023-07-19T06:32:34.926Z,1.80
2023-07-19T06:35:02.768Z,2.33
2023-07-19T06:37:30.993Z,2.87
2023-07-19T06:39:58.726Z,2.57
2023-07-19T06:42:26.617Z,2.63
2023-07-19T06:44:54.682Z,2.50
2023-07-19T06:47:22.505Z,3.20
2023-07-19T06:49:51.970Z,4.40
2023-07-19T06:52:19.737Z,3.70
2023-07-19T06:54:47.861Z,2.70
2023-07-19T06:57:15.678Z,3.37
2023-07-19T06:59:43.665Z,3.80
2023-07-19T07:02:11.557Z,2.77
2023-07-19T07:04:39.273Z,3.17
2023-07-19T07:07:08.876Z,2.80
2023-07-19T07:09:37.672Z,2.33
2023-07-19T07:12:06.759Z,2.00
2023-07-19T07:14:34.631Z,1.90
2023-07-19T07:17:02.669Z,2.00
2023-07-19T07:19:30.745Z,2.10
2023-07-19T07:21:59.280Z,1.70
2023-07-19T07:24:28.323Z,2.13
2023-07-19T07:26:56.314Z,2.67
2023-07-19T07:29:24.154Z,1.97
2023-07-19T07:31:53.112Z,1.90
2023-07-19T07:34:23.165Z,2.78
2023-07-19T07:36:52.366Z,2.17
2023-07-19T07:39:20.231Z,1.70
2023-07-19T07:41:49.278Z,2.40
2023-07-19T07:44:17.467Z,2.47
2023-07-19T07:46:45.306Z,2.10
2023-07-19T07:49:13.535Z,2.20
2023-07-19T07:51:41.341Z,2.40
2023-07-19T07:54:09.471Z,1.97
2023-07-19T07:56:37.252Z,1.65
2023-07-19T07:59:06.564Z,1.80
2023-07-19T08:01:34.346Z,1.48
2023-07-19T08:04:03.609Z,1.83
2023-07-19T08:06:31.357Z,1.85
2023-07-19T08:08:59.265Z,2.03
2023-07-19T08:11:27.894Z,2.58
2023-07-19T08:13:56.332Z,2.15
2023-07-19T08:16:25.892Z,2.38
2023-07-19T08:18:54.083Z,2.22
2023-07-19T08:21:35.309Z,1.67
2023-07-19T08:24:05.176Z,2.33
2023-07-19T08:26:33.238Z,1.90
2023-07-19T08:29:00.989Z,1.77
2023-07-19T08:31:30.325Z,1.45
2023-07-19T08:33:58.216Z,1.50
2023-07-19T08:36:26.191Z,1.98
2023-07-19T08:38:54.505Z,1.63
2023-07-19T08:41:24.312Z,1.88
2023-07-19T08:43:56.829Z,1.70
2023-07-19T08:46:24.681Z,2.07
2023-07-19T08:48:54.232Z,2.30
2023-07-19T08:51:22.774Z,2.00
2023-07-19T08:53:51.463Z,2.10
2023-07-19T08:56:19.700Z,2.47
2023-07-19T08:58:47.834Z,2.23
2023-07-19T09:01:15.814Z,2.30
2023-07-19T09:03:43.937Z,2.00
2023-07-19T09:06:13.210Z,3.10
2023-07-19T09:08:42.965Z,2.40
2023-07-19T09:11:10.935Z,2.37
2023-07-19T09:13:40.300Z,2.50
2023-07-19T09:16:08.795Z,2.53
2023-07-19T09:18:38.735Z,3.13
2023-07-19T09:21:07.258Z,1.63
2023-07-19T09:23:40.092Z,2.50
2023-07-19T09:26:08.630Z,1.53
2023-07-19T09:28:37.017Z,1.80
2023-07-19T09:33:37.076Z,2.10
2023-07-19T09:36:05.252Z,1.60
2023-07-19T09:38:33.063Z,1.83
2023-07-19T09:41:02.882Z,2.00
2023-07-19T09:43:34.068Z,2.40
2023-07-19T09:46:03.371Z,2.40
2023-07-19T09:48:31.605Z,2.20
2023-07-19T09:51:03.970Z,2.40
2023-07-19T09:53:34.676Z,1.63
2023-07-19T09:56:05.415Z,1.70
2023-07-19T09:58:35.826Z,2.00
2023-07-19T10:01:03.958Z,2.73
2023-07-19T10:03:31.915Z,2.70
2023-07-19T10:06:00.714Z,1.80
2023-07-19T10:08:31.807Z,2.37
2023-07-19T10:11:02.962Z,1.90
2023-07-19T10:13:32.383Z,2.50
2023-07-19T10:16:00.465Z,1.83
2023-07-19T10:18:31.008Z,2.00
2023-07-19T10:21:03.597Z,3.00
2023-07-19T10:23:32.622Z,2.97
2023-07-19T10:26:07.083Z,2.30
2023-07-19T10:28:36.800Z,2.53
2023-07-19T10:31:25.908Z,2.70
2023-07-19T10:33:56.560Z,2.80
2023-07-19T10:36:25.940Z,3.10
2023-07-19T10:38:54.235Z,2.40
2023-07-19T10:41:22.405Z,1.90
2023-07-19T10:43:54.703Z,2.90
2023-07-19T10:46:24.013Z,1.77
2023-07-19T10:48:53.183Z,2.50
2023-07-19T10:51:22.097Z,2.27
2023-07-19T10:53:58.537Z,2.13
2023-07-19T10:56:28.065Z,1.90
2023-07-19T10:59:02.077Z,2.40
2023-07-19T11:01:32.236Z,2.27
2023-07-19T11:04:04.153Z,2.10
2023-07-19T11:06:32.412Z,3.10
2023-07-19T11:09:05.628Z,2.43
2023-07-19T11:11:37.819Z,2.80
2023-07-19T11:14:07.595Z,2.70
2023-07-19T11:16:36.017Z,3.03
2023-07-19T11:19:04.139Z,3.23
2023-07-19T11:21:32.494Z,3.20
2023-07-19T11:24:00.577Z,2.57
2023-07-19T11:26:28.461Z,2.77
2023-07-19T11:28:58.689Z,2.90
2023-07-19T11:31:32.739Z,3.33
2023-07-19T11:34:07.954Z,3.13
2023-07-19T11:36:36.253Z,3.60
2023-07-19T11:39:04.529Z,2.93
2023-07-19T11:41:33.728Z,2.60
2023-07-19T11:44:01.908Z,2.30
2023-07-19T11:46:31.129Z,2.40
2023-07-19T11:48:59.457Z,2.90
2023-07-19T11:51:29.076Z,3.43
2023-07-19T11:53:56.913Z,2.70
2023-07-19T11:56:27.407Z,2.87
2023-07-19T11:58:57.421Z,2.10
2023-07-19T12:01:25.852Z,2.40
2023-07-19T12:03:55.206Z,2.63
2023-07-19T12:06:23.378Z,2.60
2023-07-19T12:08:52.132Z,2.83
2023-07-19T12:11:20.174Z,2.10
2023-07-19T12:13:49.011Z,2.63
2023-07-19T12:16:18.388Z,2.30
2023-07-19T12:18:46.363Z,2.17
2023-07-19T12:21:15.712Z,2.33
2023-07-19T12:23:44.047Z,2.50
2023-07-19T12:28:58.629Z,2.50
2023-07-19T12:31:27.120Z,2.10
2023-07-19T12:33:55.288Z,2.50
2023-07-19T12:36:25.106Z,2.50
2023-07-19T12:38:53.120Z,2.03
2023-07-19T12:41:21.011Z,2.80
2023-07-19T12:43:49.100Z,2.27
2023-07-19T12:46:17.358Z,2.20
2023-07-19T12:48:45.268Z,2.27
2023-07-19T12:51:13.568Z,2.30
2023-07-19T12:53:42.827Z,2.30
2023-07-19T12:56:10.693Z,2.10
2023-07-19T12:58:39.048Z,2.53
2023-07-19T13:01:07.098Z,1.93
2023-07-19T13:03:35.450Z,2.27
2023-07-19T13:06:03.401Z,2.77
2023-07-19T13:08:31.394Z,1.83
2023-07-19T13:11:00.827Z,2.30
2023-07-19T13:13:29.237Z,2.03
2023-07-19T13:15:57.104Z,1.73
2023-07-19T13:18:25.040Z,2.50
2023-07-19T13:20:54.623Z,2.20
2023-07-19T13:23:22.796Z,2.47
2023-07-19T13:25:50.654Z,2.30
2023-07-19T13:28:20.236Z,2.10
2023-07-19T13:30:50.089Z,2.60
2023-07-19T13:33:18.377Z,2.40
2023-07-19T13:38:18.414Z,2.20
2023-07-19T13:40:52.205Z,2.57
2023-07-19T13:43:21.499Z,1.73
2023-07-19T13:45:49.822Z,2.10
2023-07-19T13:48:18.372Z,2.17
2023-07-19T13:50:46.412Z,2.30
2023-07-19T13:53:14.306Z,2.23
2023-07-19T13:55:42.563Z,2.23
2023-07-19T13:58:10.453Z,2.30
2023-07-19T14:00:39.670Z,2.43
2023-07-19T14:03:07.985Z,2.07
2023-07-19T14:05:35.902Z,2.50
2023-07-19T14:08:04.687Z,1.67
2023-07-19T14:10:33.379Z,2.10
2023-07-19T14:13:01.414Z,2.30
2023-07-19T14:15:29.859Z,2.60
2023-07-19T14:17:59.626Z,2.40
2023-07-19T14:20:27.851Z,2.00
2023-07-19T14:22:55.677Z,2.70
2023-07-19T14:25:24.218Z,1.77
2023-07-19T14:27:52.149Z,2.30
2023-07-19T14:30:20.208Z,2.30
2023-07-19T14:32:48.448Z,2.47
2023-07-19T14:35:17.652Z,2.10
2023-07-19T14:37:45.795Z,2.00
2023-07-19T14:40:15.733Z,1.60
2023-07-19T14:42:44.632Z,2.47
2023-07-19T14:45:12.500Z,2.90
2023-07-19T14:47:41.557Z,2.30
2023-07-19T14:50:10.797Z,1.90
2023-07-19T14:52:43.190Z,1.97
2023-07-19T14:55:11.881Z,2.30
2023-07-19T14:57:39.712Z,1.93
2023-07-19T15:00:13.288Z,2.27
2023-07-19T15:02:41.852Z,2.27
2023-07-19T15:05:10.969Z,1.97
2023-07-19T15:07:44.899Z,2.50
2023-07-19T15:10:14.693Z,2.60
2023-07-19T15:12:44.239Z,2.50
2023-07-19T15:15:13.506Z,2.33
2023-07-19T15:17:42.488Z,2.13
2023-07-19T15:20:11.232Z,2.07
2023-07-19T15:22:42.342Z,2.20
2023-07-19T15:25:10.610Z,2.70
2023-07-19T15:27:39.120Z,2.03
2023-07-19T15:30:08.463Z,2.47
2023-07-19T15:32:36.420Z,2.23
2023-07-19T15:35:04.479Z,2.17
2023-07-19T15:37:32.386Z,2.63
2023-07-19T15:40:01.450Z,2.27
2023-07-19T15:42:29.990Z,2.47
2023-07-19T15:44:57.699Z,3.80
2023-07-19T15:47:25.570Z,2.53
2023-07-19T15:49:53.576Z,2.10
2023-07-19T15:52:21.359Z,2.70
2023-07-19T15:54:49.104Z,2.10
2023-07-19T15:57:18.533Z,2.33
2023-07-19T15:59:46.195Z,4.57
2023-07-19T16:02:14.808Z,2.90
2023-07-19T16:04:43.144Z,2.00
2023-07-19T16:07:14.344Z,2.70
2023-07-19T16:09:42.402Z,1.80
2023-07-19T16:12:11.578Z,2.70
2023-07-19T16:14:41.422Z,2.03
2023-07-19T16:17:09.264Z,3.10
2023-07-19T16:19:37.555Z,2.00
2023-07-19T16:22:05.461Z,2.23
2023-07-19T16:24:33.252Z,2.67
2023-07-19T16:27:01.442Z,2.27
2023-07-19T16:29:29.119Z,2.37
2023-07-19T16:31:58.184Z,2.10
2023-07-19T16:34:26.406Z,2.10
2023-07-19T16:36:54.131Z,2.73
2023-07-19T16:39:21.833Z,2.87
2023-07-19T16:41:50.200Z,3.07
2023-07-19T16:44:18.175Z,2.60
2023-07-19T16:46:46.137Z,2.90
2023-07-19T16:49:15.696Z,2.50
2023-07-19T16:51:43.526Z,2.70
2023-07-19T16:54:11.227Z,2.53
2023-07-19T16:56:39.420Z,2.90
2023-07-19T16:59:07.311Z,2.87
2023-07-19T17:01:35.246Z,2.50
2023-07-19T17:04:03.594Z,2.70
2023-07-19T17:06:32.690Z,2.20
2023-07-19T17:09:00.389Z,2.87
2023-07-19T17:11:28.616Z,2.77
2023-07-19T17:13:56.590Z,3.00
2023-07-19T17:16:24.373Z,2.60
2023-07-19T17:19:09.425Z,2.70
2023-07-19T17:21:45.853Z,2.63
2023-07-19T17:24:14.176Z,3.20
2023-07-19T17:26:41.928Z,3.73
2023-07-19T17:29:09.644Z,2.73
2023-07-19T17:31:38.056Z,3.17
2023-07-19T17:34:05.895Z,2.60
2023-07-19T17:36:33.970Z,3.47
2023-07-19T17:39:02.498Z,3.20
2023-07-19T17:41:30.568Z,2.50
2023-07-19T17:43:58.639Z,2.53
2023-07-19T17:46:26.418Z,3.60
2023-07-19T17:48:54.184Z,2.60
2023-07-19T17:51:22.729Z,2.90
2023-07-19T17:53:50.754Z,3.30
2023-07-19T17:56:19.766Z,3.30
2023-07-19T17:58:48.107Z,3.17
2023-07-19T18:01:17.104Z,3.00
2023-07-19T18:03:45.867Z,3.20
2023-07-19T18:06:13.626Z,4.13
2023-07-19T18:08:41.305Z,2.73
2023-07-19T18:11:09.435Z,3.70
2023-07-19T18:13:38.630Z,3.00
2023-07-19T18:16:06.930Z,3.90
2023-07-19T18:18:34.634Z,2.83
2023-07-19T18:21:02.432Z,3.20
2023-07-19T18:23:30.615Z,3.13
2023-07-19T18:25:58.713Z,3.40
2023-07-19T18:28:26.422Z,3.70
2023-07-19T18:30:55.542Z,3.53
2023-07-19T18:33:23.714Z,2.83
2023-07-19T18:35:51.935Z,3.90
2023-07-19T18:38:19.561Z,3.23
2023-07-19T18:40:47.642Z,4.23
2023-07-19T18:43:15.409Z,3.97
2023-07-19T18:45:43.159Z,4.30
2023-07-19T18:48:12.628Z,4.00
2023-07-19T18:50:40.721Z,3.53
2023-07-19T18:53:08.466Z,3.97
2023-07-19T18:55:36.595Z,3.53
2023-07-19T18:58:04.323Z,4.10
2023-07-19T19:00:32.095Z,3.90
2023-07-19T19:03:00.497Z,3.40
2023-07-19T19:05:29.840Z,3.40
2023-07-19T19:07:57.748Z,3.63
2023-07-19T19:10:26.218Z,4.23
2023-07-19T19:12:53.944Z,4.60
2023-07-19T19:15:21.743Z,4.43
2023-07-19T19:17:49.889Z,4.10
2023-07-19T19:20:18.177Z,4.23
2023-07-19T19:22:47.811Z,3.60
2023-07-19T19:25:16.220Z,3.67
2023-07-19T19:27:44.014Z,3.20
2023-07-19T19:30:12.354Z,4.43
2023-07-19T19:32:40.897Z,3.60
2023-07-19T19:35:09.227Z,4.27
2023-07-19T19:37:37.262Z,3.90
2023-07-19T19:40:10.781Z,3.90
2023-07-19T19:42:39.584Z,3.43
2023-07-19T19:45:08.960Z,5.00
2023-07-19T19:47:37.268Z,3.73
2023-07-19T19:50:05.829Z,3.80
2023-07-19T19:52:34.227Z,3.70
2023-07-19T19:55:01.943Z,3.23
2023-07-19T19:57:32.899Z,3.13
2023-07-19T20:00:03.027Z,3.60
2023-07-19T20:02:38.086Z,3.53
2023-07-19T20:05:06.928Z,3.33
2023-07-19T20:07:34.692Z,3.20
2023-07-19T20:10:17.546Z,3.50
2023-07-19T20:12:48.169Z,3.50
2023-07-19T20:15:16.375Z,3.60
2023-07-19T20:17:44.308Z,3.47
2023-07-19T20:20:22.570Z,3.47
2023-07-19T20:22:52.311Z,3.70
2023-07-19T20:25:56.344Z,2.80
2023-07-19T20:28:09.570Z,3.10
2023-07-19T20:33:09.045Z,3.23
2023-07-19T20:43:11.826Z,3.40
2023-07-19T20:45:39.732Z,3.10
2023-07-19T20:48:07.648Z,3.70
2023-07-19T20:50:37.220Z,3.97
2023-07-19T20:53:04.906Z,4.00
2023-07-19T20:55:33.551Z,3.50
2023-07-19T20:58:01.786Z,4.43
2023-07-19T21:00:30.937Z,4.73
2023-07-19T21:02:59.293Z,4.10
2023-07-19T21:05:27.028Z,4.30
2023-07-19T21:07:54.706Z,4.20
2023-07-19T21:10:27.422Z,4.20
2023-07-19T21:12:55.313Z,3.70
2023-07-19T21:15:23.139Z,4.17
2023-07-19T21:17:54.841Z,4.27
2023-07-19T21:20:23.759Z,3.60
2023-07-19T21:22:52.229Z,4.10
2023-07-19T21:25:20.438Z,4.50
2023-07-19T21:27:48.216Z,3.93
2023-07-19T21:30:16.434Z,4.13
2023-07-19T21:32:45.075Z,4.60
2023-07-19T21:35:14.180Z,3.77
2023-07-19T21:37:42.398Z,3.53
2023-07-19T21:40:10.767Z,4.27
2023-07-19T21:42:38.741Z,3.60
2023-07-19T21:45:07.247Z,3.03
2023-07-19T21:47:34.992Z,3.93
2023-07-19T21:50:02.741Z,3.90
2023-07-19T21:52:32.223Z,3.70
2023-07-19T21:54:59.865Z,4.17
2023-07-19T21:57:27.826Z,3.70
2023-07-19T21:59:56.018Z,4.83
2023-07-19T22:02:23.778Z,3.50
2023-07-19T22:04:51.420Z,4.30
2023-07-19T22:07:19.569Z,3.50
2023-07-19T22:09:48.617Z,3.77
2023-07-19T22:12:16.534Z,3.97
2023-07-19T22:14:50.842Z,4.40
2023-07-19T22:17:25.283Z,3.87
2023-07-19T22:19:53.408Z,3.40
2023-07-19T22:22:21.545Z,3.77
2023-07-19T22:24:50.621Z,4.13
2023-07-19T22:27:18.750Z,3.00
2023-07-19T22:29:46.390Z,4.10
2023-07-19T22:32:14.441Z,3.20
2023-07-19T22:34:42.095Z,3.53
2023-07-19T22:37:10.672Z,3.10
2023-07-19T22:39:38.303Z,3.23
2023-07-19T22:42:07.686Z,3.93
2023-07-19T22:44:35.914Z,3.50
2023-07-19T22:47:04.849Z,3.33
2023-07-19T22:49:32.688Z,3.40
2023-07-19T22:52:00.779Z,3.83
2023-07-19T22:54:28.525Z,4.00
2023-07-19T22:56:56.628Z,3.60
2023-07-19T22:59:25.714Z,3.70
2023-07-19T23:01:53.454Z,3.37
2023-07-19T23:04:21.579Z,4.00
2023-07-19T23:06:49.294Z,3.97
2023-07-19T23:09:17.018Z,3.60
2023-07-19T23:11:45.108Z,3.60
2023-07-19T23:14:12.757Z,3.30
2023-07-19T23:16:44.681Z,3.60
2023-07-19T23:19:12.701Z,3.90
2023-07-19T23:21:40.481Z,4.40
2023-07-19T23:24:08.774Z,3.70
2023-07-19T23:26:36.484Z,4.20
2023-07-19T23:29:06.393Z,3.50
2023-07-19T23:31:35.619Z,3.53
2023-07-19T23:34:04.660Z,4.27
2023-07-19T23:36:32.463Z,4.07
2023-07-19T23:39:00.939Z,3.67
2023-07-19T23:41:28.846Z,4.70
2023-07-19T23:43:56.573Z,4.30
2023-07-19T23:46:25.163Z,3.90
2023-07-19T23:48:53.172Z,4.27
2023-07-19T23:51:22.316Z,3.90
2023-07-19T23:53:50.420Z,4.00
2023-07-19T23:56:18.087Z,3.70
2023-07-19T23:58:45.809Z,4.07
